Time;durP1;ratioP1;P1;durP2;ratioP2;P2;SDS_P1;SDS_P2;PMS_P1;PMS_P2;Temp;Humidity;BMP_temperature;BMP_pressure;BME280_temperature;BME280_humidity;BME280_pressure;Samples;Min_cycle;Max_cycle;Signal;HPM_P1;HPM_P2
2023/03/01 00:01:26;;;;;;;15.70;7.82;;;;;;;-0.95;65.48;103310.16;7391682;19;20447;-63
2023/03/01 00:03:52;;;;;;;14.43;8.15;;;;;;;-1.23;66.23;103301.25;7391862;19;20006;-61
2023/03/01 00:06:18;;;;;;;18.85;7.95;;;;;;;-1.43;67.22;103303.66;7390238;19;20008;-63
2023/03/01 00:08:44;;;;;;;16.58;8.65;;;;;;;-1.59;68.16;103309.59;7390339;19;19998;-62
2023/03/01 00:11:13;;;;;;;15.15;8.60;;;;;;;-1.30;67.37;103304.66;7391553;19;20002;-63
2023/03/01 00:13:40;;;;;;;17.88;10.63;;;;;;;-0.99;66.31;103304.91;7392126;19;20003;-63
2023/03/01 00:16:12;;;;;;;16.38;9.63;;;;;;;-0.92;65.64;103302.34;7390512;19;20010;-62
2023/03/01 00:18:38;;;;;;;20.23;11.15;;;;;;;-0.87;65.48;103299.75;7389473;19;20065;-62
2023/03/01 00:21:05;;;;;;;20.58;10.55;;;;;;;-1.35;66.31;103298.50;7390800;19;20074;-62
2023/03/01 00:23:31;;;;;;;26.67;11.75;;;;;;;-1.20;66.57;103288.25;7391941;19;20029;-62
2023/03/01 00:25:57;;;;;;;27.27;13.73;;;;;;;-0.98;65.88;103284.03;7390571;19;20010;-62
2023/03/01 00:28:22;;;;;;;23.30;11.88;;;;;;;-1.35;66.89;103291.59;7389610;19;20010;-62
2023/03/01 00:30:48;;;;;;;21.75;11.25;;;;;;;-1.56;67.70;103291.38;7391971;19;20006;-61
2023/03/01 00:33:14;;;;;;;23.48;12.68;;;;;;;-1.71;68.30;103292.09;7389313;19;20002;-62
2023/03/01 00:35:39;;;;;;;23.67;12.50;;;;;;;-1.74;68.91;103296.41;7390384;19;20026;-62
2023/03/01 00:38:05;;;;;;;25.27;13.18;;;;;;;-1.68;68.59;103286.06;7387131;19;19987;-62
2023/03/01 00:40:33;;;;;;;26.63;12.88;;;;;;;-1.63;68.47;103290.44;7390640;19;20007;-61
2023/03/01 00:42:58;;;;;;;26.25;14.05;;;;;;;-1.67;68.77;103290.41;7390877;19;19998;-62
2023/03/01 00:45:24;;;;;;;26.60;12.60;;;;;;;-1.80;69.33;103281.59;7388604;19;20099;-62
2023/03/01 00:47:50;;;;;;;21.98;11.85;;;;;;;-1.85;70.13;103286.78;7389567;19;20326;-62
2023/03/01 00:50:17;;;;;;;22.38;11.88;;;;;;;-1.88;70.05;103275.44;7391474;19;20143;-63
2023/03/01 00:52:42;;;;;;;21.13;10.73;;;;;;;-1.91;70.34;103281.47;7389833;19;19991;-63
2023/03/01 00:55:08;;;;;;;21.05;11.63;;;;;;;-1.94;70.18;103284.03;7389937;19;20015;-62
2023/03/01 00:57:34;;;;;;;22.40;11.35;;;;;;;-1.90;70.22;103279.75;7388626;19;20006;-63
2023/03/01 00:59:59;;;;;;;21.25;11.63;;;;;;;-1.96;70.28;103284.88;7390898;19;20007;-63
2023/03/01 01:02:25;;;;;;;21.17;11.05;;;;;;;-1.92;70.69;103290.16;7390144;19;20003;-62
2023/03/01 01:04:51;;;;;;;21.42;11.23;;;;;;;-1.94;70.35;103278.84;7390047;19;20002;-64
2023/03/01 01:07:17;;;;;;;21.20;11.30;;;;;;;-1.96;70.77;103277.97;7387058;19;20004;-64
2023/03/01 01:09:43;;;;;;;20.27;11.65;;;;;;;-1.97;70.91;103276.19;7387523;19;20035;-63
2023/03/01 01:12:09;;;;;;;21.98;11.15;;;;;;;-1.92;70.17;103284.09;7387500;19;20314;-62
2023/03/01 01:14:35;;;;;;;19.92;10.60;;;;;;;-1.84;70.20;103280.69;7396362;19;19998;-63
2023/03/01 01:17:00;;;;;;;19.83;10.40;;;;;;;-2.02;70.45;103277.88;7395835;19;19999;-62
2023/03/01 01:19:26;;;;;;;20.10;10.90;;;;;;;-2.08;70.91;103278.66;7397267;19;20005;-64
2023/03/01 01:21:52;;;;;;;20.02;11.02;;;;;;;-1.95;70.46;103269.28;7397259;19;20345;-64
2023/03/01 01:24:18;;;;;;;22.33;11.27;;;;;;;-2.04;70.45;103264.84;7397324;19;20005;-65
2023/03/01 01:26:44;;;;;;;19.55;10.48;;;;;;;-2.03;70.47;103270.94;7394042;19;20058;-64
2023/03/01 01:29:10;;;;;;;18.80;10.57;;;;;;;-2.04;70.33;103264.84;7397247;19;20087;-65
2023/03/01 01:31:37;;;;;;;21.08;10.90;;;;;;;-2.15;70.56;103258.66;7396174;19;20002;-64
2023/03/01 01:34:05;;;;;;;20.85;11.07;;;;;;;-2.07;70.56;103262.22;7397471;19;20006;-64
2023/03/01 01:36:31;;;;;;;21.63;10.70;;;;;;;-2.06;70.20;103250.06;7392735;19;19999;-64
2023/03/01 01:38:57;;;;;;;20.42;10.00;;;;;;;-2.08;70.12;103252.63;7396830;19;20019;-65
2023/03/01 01:41:24;;;;;;;19.70;10.57;;;;;;;-2.13;70.26;103251.72;7397314;19;20016;-64
2023/03/01 01:44:15;;;;;;;23.67;11.18;;;;;;;-2.05;70.23;103249.19;7396811;19;20027;-64
2023/03/01 01:47:01;;;;;;;18.92;10.85;;;;;;;-1.97;69.38;103244.06;7395936;19;20003;-64
2023/03/01 01:49:48;;;;;;;19.33;10.77;;;;;;;-2.18;70.25;103242.13;7396590;19;20344;-63
2023/03/01 01:52:18;;;;;;;20.88;10.65;;;;;;;-2.16;70.05;103241.25;7395241;19;20006;-64
2023/03/01 01:55:06;;;;;;;21.08;11.32;;;;;;;-2.12;70.00;103232.63;7395214;19;20014;-65
2023/03/01 01:57:40;;;;;;;20.20;11.00;;;;;;;-2.19;70.16;103229.94;7394222;19;20016;-63
2023/03/01 02:00:15;;;;;;;20.65;10.88;;;;;;;-2.28;70.59;103230.72;7395005;19;20002;-64
2023/03/01 02:02:42;;;;;;;19.95;10.60;;;;;;;-2.34;70.75;103228.06;7396306;19;20339;-63
2023/03/01 02:05:20;;;;;;;19.55;10.30;;;;;;;-2.32;70.79;103226.34;7393870;19;20003;-64
2023/03/01 02:07:47;;;;;;;23.20;10.45;;;;;;;-2.34;70.88;103220.25;7394196;19;20070;-65
2023/03/01 02:10:13;;;;;;;17.65;10.10;;;;;;;-2.29;70.85;103218.56;7396429;19;20014;-64
2023/03/01 02:12:39;;;;;;;20.88;10.65;;;;;;;-2.25;70.56;103210.78;7392606;19;20014;-64
2023/03/01 02:15:05;;;;;;;17.75;9.90;;;;;;;-2.22;70.37;103209.09;7395573;19;20003;-64
2023/03/01 02:17:31;;;;;;;19.38;10.48;;;;;;;-2.20;70.40;103215.19;7392034;19;20031;-64
2023/03/01 02:20:21;;;;;;;20.38;9.85;;;;;;;-2.27;70.48;103216.84;7395929;19;20022;-66
2023/03/01 02:22:47;;;;;;;15.30;8.73;;;;;;;-2.38;71.02;103216.75;7395543;19;20038;-63
2023/03/01 02:25:18;;;;;;;15.70;8.95;;;;;;;-2.40;71.04;103217.56;7392317;19;20389;-63
2023/03/01 02:27:55;;;;;;;15.65;8.65;;;;;;;-2.45;71.18;103207.09;7392957;19;20008;-62
2023/03/01 02:30:22;;;;;;;16.35;9.07;;;;;;;-2.43;71.16;103207.97;7395240;19;20084;-63
2023/03/01 02:32:51;;;;;;;16.00;9.10;;;;;;;-2.42;71.01;103214.06;7391708;19;20502;-62
2023/03/01 02:35:19;;;;;;;19.20;9.50;;;;;;;-2.40;70.43;103212.34;7394909;19;20003;-62
2023/03/01 02:37:44;;;;;;;18.17;9.35;;;;;;;-2.38;70.48;103213.22;7392438;19;20063;-64
2023/03/01 02:40:18;;;;;;;19.25;9.85;;;;;;;-2.43;70.59;103209.72;7394842;19;20014;-61
2023/03/01 02:42:53;;;;;;;17.00;9.50;;;;;;;-2.41;70.57;103214.09;7395198;19;20015;-63
2023/03/01 02:45:19;;;;;;;17.55;9.00;;;;;;;-2.38;70.25;103206.31;7395006;19;20023;-62
2023/03/01 02:47:44;;;;;;;16.75;8.95;;;;;;;-2.48;70.85;103201.00;7390745;19;20342;-63
2023/03/01 02:50:28;;;;;;;18.05;9.80;;;;;;;-2.41;70.92;103211.50;7394577;19;19990;-62
2023/03/01 02:53:08;;;;;;;17.08;10.00;;;;;;;-2.43;70.97;103205.38;7392391;19;20486;-64
2023/03/01 02:55:34;;;;;;;16.15;9.00;;;;;;;-2.36;70.19;103203.72;7393614;19;19998;-65
2023/03/01 02:58:02;;;;;;;15.27;9.55;;;;;;;-2.27;69.84;103211.63;7392029;19;20323;-65
2023/03/01 03:00:46;;;;;;;21.77;9.70;;;;;;;-2.15;69.55;103201.38;7394688;19;20044;-65
2023/03/01 03:03:17;;;;;;;16.98;9.50;;;;;;;-2.33;70.04;103203.78;7394401;19;19991;-65
2023/03/01 03:05:43;;;;;;;19.05;10.15;;;;;;;-2.39;70.49;103214.09;7391808;19;20463;-65
2023/03/01 03:08:08;;;;;;;18.95;9.45;;;;;;;-2.42;70.76;103212.34;7394550;19;19999;-65
2023/03/01 03:10:37;;;;;;;17.13;9.60;;;;;;;-2.38;70.59;103205.41;7393345;19;20070;-65
2023/03/01 03:13:09;;;;;;;16.55;9.40;;;;;;;-2.45;70.57;103206.25;7391769;19;20002;-64
2023/03/01 03:15:38;;;;;;;19.60;9.68;;;;;;;-2.53;71.00;103199.22;7392939;19;20006;-64
2023/03/01 03:18:07;;;;;;;19.25;10.32;;;;;;;-2.56;71.31;103200.91;7393844;19;19999;-64
2023/03/01 03:20:33;;;;;;;17.95;10.25;;;;;;;-2.37;70.86;103197.66;7393950;19;20006;-64
2023/03/01 03:22:59;;;;;;;20.38;10.52;;;;;;;-2.30;70.90;103201.22;7393141;19;20386;-64
2023/03/01 03:25:26;;;;;;;16.95;9.18;;;;;;;-2.39;70.75;103203.69;7392392;19;19999;-64
2023/03/01 03:27:59;;;;;;;18.75;9.57;;;;;;;-2.59;71.17;103190.44;7391439;19;19998;-63
2023/03/01 03:30:30;;;;;;;15.88;9.65;;;;;;;-2.58;71.06;103190.44;7392966;19;20368;-63
2023/03/01 03:32:57;;;;;;;16.55;9.85;;;;;;;-2.60;70.85;103186.09;7392013;19;20006;-65
2023/03/01 03:35:29;;;;;;;18.35;10.20;;;;;;;-2.63;70.87;103181.72;7391638;19;19991;-64
2023/03/01 03:38:02;;;;;;;17.10;9.20;;;;;;;-2.53;70.39;103181.00;7391242;19;20021;-65
2023/03/01 03:40:44;;;;;;;19.70;9.73;;;;;;;-2.64;70.96;103177.38;7392954;19;20014;-64
2023/03/01 03:43:13;;;;;;;16.70;9.65;;;;;;;-2.72;70.75;103178.16;7392717;19;20006;-63
2023/03/01 03:45:39;;;;;;;17.35;10.48;;;;;;;-2.75;70.91;103173.78;7392205;19;20013;-63
2023/03/01 03:48:13;;;;;;;17.60;10.43;;;;;;;-2.80;70.77;103171.13;7393249;19;20314;-63
2023/03/01 03:50:40;;;;;;;16.13;9.55;;;;;;;-2.71;70.24;103167.75;7392503;19;20053;-62
2023/03/01 03:53:09;;;;;;;18.17;9.55;;;;;;;-2.67;70.12;103166.06;7391528;19;20003;-62
2023/03/01 03:55:34;;;;;;;17.52;9.90;;;;;;;-2.71;70.54;103164.28;7391945;19;20019;-63
2023/03/01 03:58:06;;;;;;;17.70;10.57;;;;;;;-2.73;70.67;103161.66;7391131;19;20327;-63
2023/03/01 04:00:37;;;;;;;17.58;9.93;;;;;;;-2.78;71.37;103163.34;7391880;19;19995;-63
2023/03/01 04:03:03;;;;;;;19.55;11.02;;;;;;;-2.30;69.73;103151.75;7392327;19;20006;-64
2023/03/01 04:05:29;;;;;;;18.98;10.18;;;;;;;-2.02;68.70;103156.34;7390121;19;19998;-63
2023/03/01 04:08:06;;;;;;;19.75;11.30;;;;;;;-2.11;68.79;103150.19;7390292;19;20042;-63
2023/03/01 04:10:38;;;;;;;18.27;11.02;;;;;;;-2.29;69.25;103156.94;7389730;19;20482;-65
2023/03/01 04:13:04;;;;;;;17.00;10.65;;;;;;;-2.45;69.87;103152.44;7389974;19;20007;-64
2023/03/01 04:15:32;;;;;;;16.92;10.27;;;;;;;-2.56;70.41;103156.66;7391488;19;20010;-63
2023/03/01 04:17:58;;;;;;;18.17;10.50;;;;;;;-2.39;69.74;103155.09;7389741;19;20009;-64
2023/03/01 04:20:28;;;;;;;20.35;11.10;;;;;;;-2.09;68.81;103157.13;7391391;19;20032;-64
2023/03/01 04:22:57;;;;;;;20.50;11.32;;;;;;;-2.38;68.64;103155.97;7391271;19;20006;-64
2023/03/01 04:25:23;;;;;;;21.48;12.18;;;;;;;-2.56;69.55;103146.25;7391319;19;20005;-65
2023/03/01 04:27:49;;;;;;;20.55;11.20;;;;;;;-2.44;69.30;103151.59;7390932;19;20007;-65
2023/03/01 04:30:15;;;;;;;18.00;11.05;;;;;;;-2.64;69.72;103156.56;7391597;19;20070;-63
2023/03/01 04:32:40;;;;;;;18.05;11.25;;;;;;;-2.83;70.36;103155.47;7389728;19;20051;-63
2023/03/01 04:35:06;;;;;;;20.25;11.35;;;;;;;-2.83;70.58;103152.88;7390996;19;20470;-63
2023/03/01 04:37:32;;;;;;;21.55;11.93;;;;;;;-2.96;71.33;103150.97;7389405;19;20038;-66
2023/03/01 04:39:57;;;;;;;22.02;11.45;;;;;;;-2.99;71.48;103150.94;7390446;19;20036;-64
2023/03/01 04:42:22;;;;;;;21.40;12.98;;;;;;;-2.93;71.61;103150.13;7389519;19;20471;-64
2023/03/01 04:44:51;;;;;;;22.40;13.63;;;;;;;-2.74;71.39;103152.09;7390432;19;20022;-64
2023/03/01 04:47:17;;;;;;;22.67;12.38;;;;;;;-2.36;69.62;103146.47;7389567;19;19999;-65
2023/03/01 04:49:42;;;;;;;23.50;14.15;;;;;;;-2.22;68.89;103142.28;7398596;19;20037;-63
2023/03/01 04:52:09;;;;;;;23.00;13.35;;;;;;;-2.31;69.40;103137.81;7397379;19;20480;-65
2023/03/01 04:54:35;;;;;;;23.13;14.05;;;;;;;-2.47;69.76;103133.34;7396936;19;20391;-64
2023/03/01 04:57:02;;;;;;;24.48;13.63;;;;;;;-2.68;70.55;103133.97;7396455;19;20340;-64
2023/03/01 04:59:28;;;;;;;25.05;15.02;;;;;;;-2.81;71.23;103130.34;7398252;19;20450;-64
2023/03/01 05:02:00;;;;;;;24.23;13.93;;;;;;;-2.83;71.30;103134.69;7398401;19;20094;-64
2023/03/01 05:04:25;;;;;;;23.98;14.15;;;;;;;-2.95;71.89;103131.94;7395586;19;19990;-65
2023/03/01 05:06:53;;;;;;;22.73;13.45;;;;;;;-2.93;71.75;103129.34;7396023;19;20009;-64
2023/03/01 05:09:18;;;;;;;25.27;15.13;;;;;;;-3.01;71.98;103130.09;7397779;19;20292;-65
2023/03/01 05:11:44;;;;;;;22.67;13.50;;;;;;;-2.92;71.50;103129.34;7395318;19;20441;-65
2023/03/01 05:14:10;;;;;;;26.55;16.20;;;;;;;-2.71;70.36;103133.94;7395436;19;20002;-65
2023/03/01 05:16:36;;;;;;;31.35;16.90;;;;;;;-2.64;69.75;103127.97;7395530;19;20462;-64
2023/03/01 05:19:11;;;;;;;30.58;17.98;;;;;;;-2.76;69.82;103133.03;7395401;19;20003;-63
2023/03/01 05:22:01;;;;;;;29.77;17.55;;;;;;;-2.69;69.39;103144.34;7395602;19;20007;-64
2023/03/01 05:24:25;;;;;;;32.28;18.13;;;;;;;-2.88;70.38;103136.31;7395998;19;19995;-63
2023/03/01 05:26:51;;;;;;;32.78;21.38;;;;;;;-2.92;70.79;103136.28;7394422;19;19995;-63
2023/03/01 05:29:24;;;;;;;40.08;23.38;;;;;;;-3.04;71.27;103131.78;7397402;19;19999;-64
2023/03/01 05:32:00;;;;;;;35.35;22.48;;;;;;;-2.95;71.26;103139.72;7396302;19;20090;-62
2023/03/01 05:34:31;;;;;;;38.80;22.60;;;;;;;-3.03;71.40;103133.53;7396127;19;20002;-64
2023/03/01 05:36:58;;;;;;;38.10;23.92;;;;;;;-3.02;71.67;103138.78;7395065;19;20002;-64
2023/03/01 05:39:25;;;;;;;40.70;23.27;;;;;;;-3.01;71.77;103137.03;7397216;19;20011;-64
2023/03/01 05:42:00;;;;;;;38.00;24.80;;;;;;;-3.11;72.33;103140.38;7396642;19;20102;-63
2023/03/01 05:44:28;;;;;;;38.08;23.48;;;;;;;-3.26;73.07;103136.72;7395667;19;20009;-68
2023/03/01 05:46:54;;;;;;;37.35;22.45;;;;;;;-3.13;72.75;103136.88;7393096;19;19999;-62
2023/03/01 05:49:20;;;;;;;36.80;22.70;;;;;;;-3.10;72.19;103137.81;7396545;19;20007;-62
2023/03/01 05:51:51;;;;;;;38.45;22.38;;;;;;;-3.01;71.88;103131.84;7396106;19;19994;-64
2023/03/01 05:54:17;;;;;;;38.33;23.45;;;;;;;-2.94;71.14;103123.25;7396577;19;20110;-66
2023/03/01 05:56:43;;;;;;;38.53;23.15;;;;;;;-3.05;71.39;103130.94;7394345;19;20006;-63
2023/03/01 05:59:09;;;;;;;41.25;23.27;;;;;;;-3.07;71.78;103143.03;7393723;19;20482;-62
2023/03/01 06:01:35;;;;;;;39.28;23.92;;;;;;;-3.10;72.24;103137.81;7396052;19;20003;-63
2023/03/01 06:04:02;;;;;;;39.20;23.23;;;;;;;-3.15;72.18;103138.56;7395259;19;20459;-63
2023/03/01 06:06:28;;;;;;;40.33;24.30;;;;;;;-3.11;72.21;103141.22;7394251;19;20592;-65
2023/03/01 06:08:54;;;;;;;38.63;23.42;;;;;;;-3.01;72.18;103137.03;7393637;19;20478;-64
2023/03/01 06:11:20;;;;;;;36.72;22.52;;;;;;;-2.62;70.58;103144.44;7395660;19;20003;-62
2023/03/01 06:13:46;;;;;;;37.47;22.52;;;;;;;-2.39;69.29;103130.81;7393652;19;20022;-68
2023/03/01 06:16:13;;;;;;;34.28;21.77;;;;;;;-2.46;69.73;103140.28;7393281;19;20079;-65
2023/03/01 06:18:39;;;;;;;37.45;22.75;;;;;;;-2.63;70.57;103145.31;7392726;19;20456;-67
2023/03/01 06:21:05;;;;;;;46.78;29.48;;;;;;;-2.90;71.13;103147.59;7395660;19;20074;-68
2023/03/01 06:23:31;;;;;;;39.20;25.50;;;;;;;-2.60;70.43;103145.34;7392678;19;20011;-67
2023/03/01 06:25:57;;;;;;;42.80;27.23;;;;;;;-2.37;69.79;103152.53;7392987;19;20007;-66
2023/03/01 06:28:22;;;;;;;42.05;24.73;;;;;;;-2.42;69.61;103157.69;7394409;19;20013;-64
2023/03/01 06:30:49;;;;;;;33.30;19.70;;;;;;;-2.20;69.54;103150.97;7394424;19;19998;-65
2023/03/01 06:33:15;;;;;;;29.77;17.02;;;;;;;-2.01;68.83;103152.00;7392754;19;20007;-66
2023/03/01 06:35:41;;;;;;;33.65;17.58;;;;;;;-2.07;69.12;103147.63;7393279;19;20005;-64
2023/03/01 06:38:07;;;;;;;30.83;18.08;;;;;;;-2.21;69.50;103138.81;7391900;19;20458;-64
2023/03/01 06:40:35;;;;;;;28.55;16.52;;;;;;;-2.15;69.80;103140.59;7394101;19;20125;-64
2023/03/01 06:43:00;;;;;;;30.35;18.25;;;;;;;-2.02;69.02;103145.06;7393505;19;20005;-68
2023/03/01 06:45:26;;;;;;;33.63;18.55;;;;;;;-2.51;70.41;103144.56;7393422;19;20866;-67
2023/03/01 06:47:51;;;;;;;28.88;17.50;;;;;;;-2.76;71.61;103140.84;7392027;19;20022;-67
2023/03/01 06:50:18;;;;;;;27.05;17.40;;;;;;;-2.85;72.38;103143.31;7391826;19;20462;-67
2023/03/01 06:52:44;;;;;;;29.25;17.15;;;;;;;-2.83;72.75;103142.47;7392321;19;20015;-68
2023/03/01 06:55:11;;;;;;;28.48;17.23;;;;;;;-2.69;72.77;103150.44;7393796;19;19990;-67
2023/03/01 06:57:37;;;;;;;28.30;16.75;;;;;;;-2.45;72.10;103147.25;7391334;19;19999;-68
2023/03/01 07:00:06;;;;;;;30.85;15.95;;;;;;;-2.15;70.93;103143.19;7389911;19;20106;-68
2023/03/01 07:02:32;;;;;;;25.05;15.48;;;;;;;-1.87;70.22;103139.13;7392081;19;19998;-66
2023/03/01 07:04:57;;;;;;;27.80;16.25;;;;;;;-1.78;69.55;103149.59;7391829;19;20337;-68
2023/03/01 07:07:23;;;;;;;29.17;14.98;;;;;;;-1.72;70.16;103151.41;7392742;19;20007;-68
2023/03/01 07:09:49;;;;;;;23.95;14.45;;;;;;;-1.46;69.15;103151.59;7392388;19;20015;-67
2023/03/01 07:12:15;;;;;;;27.38;14.82;;;;;;;-1.34;68.55;103159.47;7388527;19;20006;-67
2023/03/01 07:14:41;;;;;;;23.80;14.32;;;;;;;-1.74;69.52;103161.78;7392458;19;20302;-68
2023/03/01 07:17:07;;;;;;;31.58;18.52;;;;;;;-1.94;70.87;103165.97;7391592;19;20001;-67
2023/03/01 07:19:32;;;;;;;32.03;18.63;;;;;;;-1.57;70.17;103168.00;7392345;19;20005;-66
2023/03/01 07:21:57;;;;;;;32.17;17.92;;;;;;;-1.33;69.38;103154.25;7391834;19;20150;-67
2023/03/01 07:24:24;;;;;;;25.27;13.55;;;;;;;-1.55;70.23;103147.16;7391530;19;20537;-67
2023/03/01 07:26:50;;;;;;;25.00;14.00;;;;;;;-1.55;70.38;103150.63;7390317;19;20022;-66
2023/03/01 07:29:15;;;;;;;25.52;14.48;;;;;;;-1.45;70.78;103148.97;7392128;19;19995;-67
2023/03/01 07:31:41;;;;;;;29.42;16.27;;;;;;;-1.30;70.58;103153.41;7390902;19;20501;-67
2023/03/01 07:34:06;;;;;;;25.42;16.13;;;;;;;-1.43;71.31;103149.84;7392293;19;20044;-67
2023/03/01 07:36:32;;;;;;;25.58;15.00;;;;;;;-1.19;71.23;103148.28;7390251;19;20003;-67
2023/03/01 07:38:58;;;;;;;25.20;13.60;;;;;;;-0.82;69.69;103147.59;7389235;19;20010;-67
2023/03/01 07:41:23;;;;;;;23.52;13.32;;;;;;;-0.62;69.03;103150.28;7391785;19;20025;-67
2023/03/01 07:43:49;;;;;;;20.63;12.10;;;;;;;-0.64;69.19;103151.97;7391750;19;19995;-66
2023/03/01 07:46:14;;;;;;;22.92;12.88;;;;;;;-0.47;69.02;103157.28;7389775;19;19998;-66
2023/03/01 07:48:39;;;;;;;24.75;12.20;;;;;;;-0.44;68.77;103151.16;7389936;19;19991;-65
2023/03/01 07:51:06;;;;;;;19.17;10.93;;;;;;;-0.36;68.27;103154.66;7389343;19;20006;-65
2023/03/01 07:53:33;;;;;;;17.73;10.82;;;;;;;-0.29;68.25;103154.69;7387713;19;20025;-66
2023/03/01 07:56:08;;;;;;;23.48;11.70;;;;;;;-0.13;68.02;103157.31;7392364;19;20009;-66
2023/03/01 07:58:35;;;;;;;18.67;10.52;;;;;;;-0.07;67.56;103144.28;7390036;19;20013;-66
2023/03/01 08:01:02;;;;;;;21.83;10.55;;;;;;;-0.11;67.69;103137.31;7389818;19;20062;-66
2023/03/01 08:03:27;;;;;;;17.90;10.82;;;;;;;-0.16;67.57;103126.00;7389863;19;20005;-67
2023/03/01 08:05:53;;;;;;;18.30;10.63;;;;;;;-0.20;68.00;103129.47;7391272;19;20007;-66
2023/03/01 08:08:18;;;;;;;19.27;11.43;;;;;;;-0.17;68.27;103139.91;7391189;19;19999;-67
2023/03/01 08:10:44;;;;;;;19.77;10.63;;;;;;;-0.16;68.31;103139.06;7389750;19;20009;-67
2023/03/01 08:13:15;;;;;;;19.33;11.25;;;;;;;-0.12;68.39;103139.06;7390511;19;20007;-67
2023/03/01 08:15:41;;;;;;;16.73;10.60;;;;;;;-0.12;68.74;103133.81;7391337;19;20011;-67
2023/03/01 08:18:06;;;;;;;19.75;10.90;;;;;;;0.17;67.80;103132.94;7391775;19;20357;-66
2023/03/01 08:20:32;;;;;;;18.08;11.52;;;;;;;0.37;67.34;103126.00;7390241;19;19998;-67
2023/03/01 08:22:58;;;;;;;20.13;11.23;;;;;;;0.47;67.15;103129.44;7387995;19;20385;-66
2023/03/01 08:25:23;;;;;;;20.73;12.00;;;;;;;0.30;67.39;103134.69;7390789;19;19994;-66
2023/03/01 08:27:49;;;;;;;19.33;12.00;;;;;;;0.40;67.62;103131.22;7389600;19;20323;-66
2023/03/01 08:30:14;;;;;;;19.67;12.02;;;;;;;0.60;67.16;103132.94;7391071;19;20333;-65
2023/03/01 08:32:40;;;;;;;21.17;11.68;;;;;;;0.60;67.01;103128.56;7388236;19;19999;-64
2023/03/01 08:35:06;;;;;;;18.70;11.85;;;;;;;0.42;68.10;103123.34;7390489;19;20384;-64
2023/03/01 08:37:33;;;;;;;19.40;11.88;;;;;;;0.57;67.93;103125.94;7388800;19;20354;-65
2023/03/01 08:40:00;;;;;;;20.40;11.85;;;;;;;0.67;67.68;103127.69;7389800;19;20015;-66
2023/03/01 08:42:26;;;;;;;21.08;11.30;;;;;;;0.91;67.36;103123.25;7389993;19;20014;-65
2023/03/01 08:44:51;;;;;;;18.52;11.60;;;;;;;1.04;66.95;103117.06;7388685;19;20034;-65
2023/03/01 08:47:17;;;;;;;19.52;11.60;;;;;;;1.00;66.70;103112.72;7388125;19;19999;-65
2023/03/01 08:49:42;;;;;;;20.08;10.90;;;;;;;1.15;66.65;103120.50;7389545;19;20010;-65
2023/03/01 08:52:08;;;;;;;18.35;11.60;;;;;;;1.29;66.35;103112.59;7389045;19;19999;-65
2023/03/01 08:54:33;;;;;;;17.13;10.82;;;;;;;1.38;66.48;103112.53;7388529;19;19994;-65
2023/03/01 08:57:01;;;;;;;19.63;11.90;;;;;;;1.41;66.32;103119.53;7387334;19;20005;-65
2023/03/01 08:59:29;;;;;;;19.98;10.95;;;;;;;1.51;66.43;103115.97;7386709;19;20058;-66
2023/03/01 09:01:54;;;;;;;24.10;12.43;;;;;;;1.69;66.43;103108.88;7386432;19;20007;-65
2023/03/01 09:04:20;;;;;;;22.25;12.07;;;;;;;1.71;66.14;103107.97;7387515;19;20010;-67
2023/03/01 09:06:45;;;;;;;20.40;12.13;;;;;;;1.73;66.03;103105.34;7386165;19;20082;-66
2023/03/01 09:09:14;;;;;;;22.80;13.77;;;;;;;1.79;66.08;103103.56;7389206;19;19995;-65
2023/03/01 09:11:40;;;;;;;21.42;11.88;;;;;;;1.87;65.71;103096.50;7386607;19;20007;-66
2023/03/01 09:14:06;;;;;;;21.70;13.13;;;;;;;1.99;65.45;103098.16;7389225;19;20524;-65
2023/03/01 09:16:35;;;;;;;18.17;11.75;;;;;;;2.12;64.70;103094.56;7386934;19;19991;-65
2023/03/01 09:19:03;;;;;;;19.20;11.20;;;;;;;2.28;64.23;103100.53;7389301;19;20434;-66
2023/03/01 09:21:28;;;;;;;22.42;10.70;;;;;;;2.27;63.63;103101.38;7387110;19;20364;-64
2023/03/01 09:23:56;;;;;;;16.40;9.77;;;;;;;2.30;63.46;103098.72;7388340;19;20006;-65
2023/03/01 09:26:23;;;;;;;18.30;9.93;;;;;;;2.33;63.55;103108.34;7387863;19;20014;-63
2023/03/01 09:28:51;;;;;;;16.08;8.75;;;;;;;2.40;62.56;103108.25;7389951;19;20009;-65
2023/03/01 09:31:25;;;;;;;15.13;8.45;;;;;;;2.40;61.90;103110.88;7391996;19;20077;-65
2023/03/01 09:33:53;;;;;;;15.20;8.38;;;;;;;2.30;62.39;103106.59;7391648;19;20003;-65
2023/03/01 09:36:21;;;;;;;18.52;8.60;;;;;;;2.28;62.45;103100.53;7392920;19;20030;-66
2023/03/01 09:38:48;;;;;;;12.75;7.40;;;;;;;2.32;62.43;103101.34;7392798;19;20471;-64
2023/03/01 09:41:22;;;;;;;15.10;6.78;;;;;;;2.33;61.60;103105.72;7393538;19;20082;-65
2023/03/01 09:43:56;;;;;;;12.57;6.45;;;;;;;2.36;61.07;103103.06;7394177;19;20304;-65
2023/03/01 09:46:24;;;;;;;12.95;7.32;;;;;;;2.43;61.65;103110.00;7392722;19;20006;-66
2023/03/01 09:48:58;;;;;;;10.38;6.05;;;;;;;2.46;60.26;103104.69;7396112;19;20006;-65
2023/03/01 09:51:34;;;;;;;11.38;5.50;;;;;;;2.50;59.30;103109.06;7395647;19;20002;-65
2023/03/01 09:54:02;;;;;;;11.05;5.90;;;;;;;2.50;60.14;103105.53;7393984;19;20018;-64
2023/03/01 09:56:41;;;;;;;10.85;5.80;;;;;;;2.60;60.01;103108.03;7392358;19;20005;-67
2023/03/01 09:59:09;;;;;;;11.77;5.60;;;;;;;2.65;59.42;103110.63;7392979;19;19998;-65
2023/03/01 10:01:43;;;;;;;9.32;4.50;;;;;;;2.68;58.31;103105.34;7394917;19;20009;-65
2023/03/01 10:04:21;;;;;;;;;;;;;;;2.77;57.25;103109.59;7392834;19;19998;-65
2023/03/01 10:06:56;;;;;;;11.63;5.00;;;;;;;2.85;57.36;103103.41;7390627;19;19954;-65
2023/03/01 10:09:21;;;;;;;10.98;4.93;;;;;;;2.87;58.13;103106.00;7394083;19;19999;-64
2023/03/01 10:11:53;;;;;;;9.50;4.40;;;;;;;2.83;58.17;103099.03;7392011;19;19986;-64
2023/03/01 10:14:37;;;;;;;6.72;2.97;;;;;;;2.80;55.55;103089.44;7393451;19;19999;-64
2023/03/01 10:17:17;;;;;;;8.52;3.60;;;;;;;2.82;55.33;103085.06;7393866;19;20002;-65
2023/03/01 10:19:44;;;;;;;8.32;4.10;;;;;;;2.90;56.32;103084.97;7394213;19;19998;-65
2023/03/01 10:22:21;;;;;;;8.82;4.30;;;;;;;3.02;55.63;103083.94;7394738;19;20015;-65
2023/03/01 10:24:47;;;;;;;12.00;4.25;;;;;;;3.04;55.39;103087.44;7392397;19;19999;-65
2023/03/01 10:27:23;;;;;;;9.20;4.25;;;;;;;3.06;54.44;103083.00;7389400;19;20002;-65
2023/03/01 10:29:54;;;;;;;11.45;5.07;;;;;;;3.06;55.36;103086.50;7393651;19;20006;-65
2023/03/01 10:32:21;;;;;;;10.70;5.45;;;;;;;3.10;56.25;103076.81;7393608;19;20055;-65
2023/03/01 10:34:47;;;;;;;10.90;5.47;;;;;;;3.13;57.08;103082.03;7391871;19;20006;-65
2023/03/01 10:37:18;;;;;;;13.30;6.35;;;;;;;3.20;57.29;103086.31;7391272;19;20055;-66
2023/03/01 10:40:09;;;;;;;12.05;6.07;;;;;;;3.30;57.57;103079.16;7392534;19;20014;-65
2023/03/01 10:42:46;;;;;;;12.27;6.43;;;;;;;3.42;57.48;103079.03;7391062;19;19998;-64
2023/03/01 10:45:17;;;;;;;13.18;6.68;;;;;;;3.46;57.67;103070.19;7389053;19;19995;-65
2023/03/01 10:47:42;;;;;;;11.88;6.80;;;;;;;3.49;58.46;103070.13;7390462;19;20023;-64
2023/03/01 10:50:20;;;;;;;15.00;7.68;;;;;;;3.47;58.67;103071.94;7391971;19;19995;-64
2023/03/01 10:52:58;;;;;;;13.15;7.40;;;;;;;3.48;59.00;103064.91;7391870;19;20073;-65
2023/03/01 10:55:38;;;;;;;14.05;7.82;;;;;;;3.71;59.13;103077.69;7393658;19;19998;-66
2023/03/01 10:58:22;;;;;;;14.18;8.07;;;;;;;3.93;59.24;103076.50;7393958;19;20002;-64
2023/03/01 11:00:54;;;;;;;15.80;8.33;;;;;;;4.01;59.04;103068.47;7394115;19;19995;-65
2023/03/01 11:03:24;;;;;;;15.25;8.38;;;;;;;3.92;58.57;103073.88;7393442;19;20595;-65
2023/03/01 11:06:03;;;;;;;14.25;8.45;;;;;;;3.93;59.11;103067.72;7390271;19;20423;-65
2023/03/01 11:08:32;;;;;;;15.07;7.72;;;;;;;4.07;58.44;103073.63;7393243;19;20378;-65
2023/03/01 11:11:05;;;;;;;14.68;8.57;;;;;;;4.13;58.74;103064.75;7393076;19;19998;-64
2023/03/01 11:13:31;;;;;;;17.30;9.93;;;;;;;4.25;58.45;103067.16;7390602;19;19995;-65
2023/03/01 11:16:07;;;;;;;13.90;8.95;;;;;;;4.38;58.29;103068.69;7392363;19;20058;-64
2023/03/01 11:18:33;;;;;;;14.32;8.93;;;;;;;4.45;58.07;103069.41;7393324;19;19990;-66
2023/03/01 11:21:01;;;;;;;13.98;8.50;;;;;;;4.58;57.95;103061.25;7393171;19;20007;-66